createdAt,value
2018-09-01T00:00:19.337Z,1022.22
2018-09-01T00:01:19.248Z,1022.17
2018-09-01T00:02:19.876Z,1022.17
2018-09-01T00:03:19.302Z,1022.18
2018-09-01T00:04:19.105Z,1022.19
2018-09-01T00:05:19.290Z,1022.19
2018-09-01T00:06:19.093Z,1022.19
2018-09-01T00:07:19.460Z,1022.22
2018-09-01T00:08:19.410Z,1022.2
2018-09-01T00:09:19.205Z,1022.21
2018-09-01T00:10:19.416Z,1022.2
2018-09-01T00:11:19.756Z,1022.24
2018-09-01T00:12:19.373Z,1022.25
2018-09-01T00:13:19.077Z,1022.16
2018-09-01T00:14:19.242Z,1022.18
2018-09-01T00:15:19.158Z,1022.18
2018-09-01T00:16:19.359Z,1022.18
2018-09-01T00:17:19.359Z,1022.18
2018-09-01T00:18:19.257Z,1022.16
2018-09-01T00:19:19.601Z,1022.18
2018-09-01T00:20:19.193Z,1022.18
2018-09-01T00:21:19.230Z,1022.18
2018-09-01T00:22:19.326Z,1022.24
2018-09-01T00:23:19.435Z,1022.2
2018-09-01T00:24:19.070Z,1022.23
2018-09-01T00:25:19.215Z,1022.19
2018-09-01T00:26:19.363Z,1022.24
2018-09-01T00:27:19.362Z,1022.24
2018-09-01T00:28:19.572Z,1022.17
2018-09-01T00:29:19.323Z,1022.14
2018-09-01T00:30:19.489Z,1022.15
2018-09-01T00:31:19.676Z,1022.14
2018-09-01T00:32:19.419Z,1022.18
2018-09-01T00:33:19.579Z,1022.22
2018-09-01T00:34:19.212Z,1022.23
2018-09-01T00:35:19.293Z,1022.2
2018-09-01T00:36:19.273Z,1022.22
2018-09-01T00:37:19.528Z,1022.21
2018-09-01T00:38:19.479Z,1022.18
2018-09-01T00:39:19.045Z,1022.12
2018-09-01T00:40:19.177Z,1022.11
2018-09-01T00:41:19.218Z,1022.09
2018-09-01T00:42:19.390Z,1022.07
2018-09-01T00:43:19.351Z,1022.06
2018-09-01T00:44:19.201Z,1022.01
2018-09-01T00:45:19.344Z,1022.01
2018-09-01T00:46:19.308Z,1022.04
2018-09-01T00:47:19.486Z,1022.02
2018-09-01T00:48:19.512Z,1022.01
2018-09-01T00:49:19.354Z,1022.02
2018-09-01T00:50:19.198Z,1021.98
2018-09-01T00:51:19.070Z,1022
2018-09-01T00:52:19.093Z,1022
2018-09-01T00:53:19.296Z,1021.99
2018-09-01T00:54:19.249Z,1022
2018-09-01T00:55:19.170Z,1022.03
2018-09-01T00:56:19.248Z,1022.02
2018-09-01T00:57:19.273Z,1022.01
2018-09-01T00:58:19.419Z,1022.04
2018-09-01T00:59:19.163Z,1022.08
2018-09-01T01:00:19.107Z,1022.11
2018-09-01T01:01:19.196Z,1022.11
2018-09-01T01:02:19.262Z,1022.12
2018-09-01T01:03:19.287Z,1022.12
2018-09-01T01:04:19.434Z,1022.15
2018-09-01T01:05:19.443Z,1022.11
2018-09-01T01:06:19.511Z,1022.14
2018-09-01T01:07:19.185Z,1022.14
2018-09-01T01:08:19.101Z,1022.11
2018-09-01T01:09:19.167Z,1022.15
2018-09-01T01:10:19.164Z,1022.14
2018-09-01T01:11:19.732Z,1022.18
2018-09-01T01:12:19.553Z,1022.24
2018-09-01T01:13:19.218Z,1022.26
2018-09-01T01:14:19.256Z,1022.24
2018-09-01T01:15:19.197Z,1022.26
2018-09-01T01:16:19.371Z,1022.3
2018-09-01T01:17:19.499Z,1022.35
2018-09-01T01:18:19.397Z,1022.29
2018-09-01T01:19:19.249Z,1022.33
2018-09-01T01:20:19.480Z,1022.36
2018-09-01T01:21:19.304Z,1022.37
2018-09-01T01:22:19.208Z,1022.39
2018-09-01T01:23:19.428Z,1022.43
2018-09-01T01:24:19.299Z,1022.42
2018-09-01T01:25:19.558Z,1022.47
2018-09-01T01:26:19.390Z,1022.46
2018-09-01T01:27:19.564Z,1022.45
2018-09-01T01:28:19.417Z,1022.42
2018-09-01T01:29:19.167Z,1022.39
2018-09-01T01:30:19.322Z,1022.42
2018-09-01T01:31:19.294Z,1022.42
2018-09-01T01:32:19.197Z,1022.43
2018-09-01T01:33:19.212Z,1022.39
2018-09-01T01:34:19.119Z,1022.4
2018-09-01T01:35:19.301Z,1022.4
2018-09-01T01:36:19.316Z,1022.45
2018-09-01T01:37:19.385Z,1022.44
2018-09-01T01:38:19.195Z,1022.44
2018-09-01T01:39:19.213Z,1022.4
2018-09-01T01:40:19.323Z,1022.41
2018-09-01T01:41:19.252Z,1022.41
2018-09-01T01:42:19.178Z,1022.45
2018-09-01T01:43:19.222Z,1022.43
2018-09-01T01:44:19.203Z,1022.47
2018-09-01T01:45:19.450Z,1022.47
2018-09-01T01:46:19.324Z,1022.45
2018-09-01T01:47:19.307Z,1022.45
2018-09-01T01:48:19.388Z,1022.47
2018-09-01T01:49:19.177Z,1022.46
2018-09-01T01:50:19.206Z,1022.47
2018-09-01T01:51:19.382Z,1022.48
2018-09-01T01:52:19.597Z,1022.47
2018-09-01T01:53:19.537Z,1022.41
2018-09-01T01:54:19.052Z,1022.43
2018-09-01T01:55:19.282Z,1022.42
2018-09-01T01:56:19.226Z,1022.36
2018-09-01T01:57:19.198Z,1022.45
2018-09-01T01:58:19.201Z,1022.44
2018-09-01T01:59:19.184Z,1022.48
2018-09-01T02:00:19.278Z,1022.47
2018-09-01T02:01:19.361Z,1022.5
2018-09-01T02:02:19.281Z,1022.5
2018-09-01T02:03:19.296Z,1022.48
2018-09-01T02:04:19.423Z,1022.51
2018-09-01T02:05:19.446Z,1022.52
2018-09-01T02:06:19.031Z,1022.57
2018-09-01T02:07:19.163Z,1022.55
2018-09-01T02:08:19.248Z,1022.56
2018-09-01T02:09:19.509Z,1022.65
2018-09-01T02:10:19.211Z,1022.65
2018-09-01T02:11:19.214Z,1022.63
2018-09-01T02:12:19.206Z,1022.68
2018-09-01T02:13:19.283Z,1022.69
2018-09-01T02:14:19.235Z,1022.71
2018-09-01T02:15:19.318Z,1022.72
2018-09-01T02:16:19.220Z,1022.66
2018-09-01T02:17:19.366Z,1022.71
2018-09-01T02:18:19.081Z,1022.73
2018-09-01T02:19:19.247Z,1022.73
2018-09-01T02:20:19.198Z,1022.75
2018-09-01T02:21:19.427Z,1022.73
2018-09-01T02:22:19.104Z,1022.7
2018-09-01T02:23:19.139Z,1022.71
2018-09-01T02:24:19.155Z,1022.72
2018-09-01T02:25:20.001Z,1022.69
2018-09-01T02:26:19.189Z,1022.69
2018-09-01T02:27:19.344Z,1022.7
2018-09-01T02:28:19.212Z,1022.73
2018-09-01T02:29:19.329Z,1022.71
2018-09-01T02:30:19.195Z,1022.66
2018-09-01T02:31:19.121Z,1022.69
2018-09-01T02:32:19.290Z,1022.68
2018-09-01T02:33:19.308Z,1022.69
2018-09-01T02:34:19.516Z,1022.71
2018-09-01T02:35:19.374Z,1022.7
2018-09-01T02:36:19.498Z,1022.68
2018-09-01T02:37:19.233Z,1022.68
2018-09-01T02:38:19.074Z,1022.71
2018-09-01T02:39:19.284Z,1022.71
2018-09-01T02:40:19.244Z,1022.71
2018-09-01T02:41:19.282Z,1022.75
2018-09-01T02:42:19.136Z,1022.7
2018-09-01T02:43:19.187Z,1022.72
2018-09-01T02:44:19.271Z,1022.71
2018-09-01T02:45:19.075Z,1022.73
2018-09-01T02:46:19.270Z,1022.72
2018-09-01T02:47:19.147Z,1022.74
2018-09-01T02:48:19.277Z,1022.77
2018-09-01T02:49:19.084Z,1022.79
2018-09-01T02:50:19.381Z,1022.74
2018-09-01T02:51:19.192Z,1022.77
2018-09-01T02:52:19.182Z,1022.8
2018-09-01T02:53:19.473Z,1022.8
2018-09-01T02:54:19.293Z,1022.75
2018-09-01T02:55:19.513Z,1022.81
2018-09-01T02:56:19.488Z,1022.8
2018-09-01T02:57:19.331Z,1022.8
2018-09-01T02:58:19.455Z,1022.78
2018-09-01T02:59:19.537Z,1022.81
2018-09-01T03:00:19.248Z,1022.79
2018-09-01T03:01:19.527Z,1022.77
2018-09-01T03:02:19.232Z,1022.82
2018-09-01T03:03:19.318Z,1022.84
2018-09-01T03:04:19.051Z,1022.83
2018-09-01T03:05:19.333Z,1022.83
2018-09-01T03:06:19.216Z,1022.82
2018-09-01T03:07:19.302Z,1022.8
2018-09-01T03:08:19.265Z,1022.76
2018-09-01T03:09:19.176Z,1022.81
2018-09-01T03:10:19.068Z,1022.81
2018-09-01T03:11:19.193Z,1022.79
2018-09-01T03:12:19.218Z,1022.79
2018-09-01T03:13:19.003Z,1022.78
2018-09-01T03:14:19.248Z,1022.78
2018-09-01T03:15:19.255Z,1022.79
2018-09-01T03:16:19.241Z,1022.8
2018-09-01T03:17:19.161Z,1022.79
2018-09-01T03:18:19.243Z,1022.82
2018-09-01T03:19:19.202Z,1022.79
2018-09-01T03:20:19.152Z,1022.82
2018-09-01T03:21:19.251Z,1022.83
2018-09-01T03:22:19.344Z,1022.83
2018-09-01T03:23:19.348Z,1022.78
2018-09-01T03:24:19.141Z,1022.77
2018-09-01T03:25:19.258Z,1022.77
2018-09-01T03:26:19.237Z,1022.78
2018-09-01T03:27:19.312Z,1022.83
2018-09-01T03:28:19.177Z,1022.8
2018-09-01T03:29:19.308Z,1022.82
2018-09-01T03:30:19.352Z,1022.86
2018-09-01T03:31:19.488Z,1022.86
2018-09-01T03:32:19.199Z,1022.81
2018-09-01T03:33:19.021Z,1022.88
2018-09-01T03:34:19.208Z,1022.89
2018-09-01T03:35:19.154Z,1022.92
2018-09-01T03:36:19.251Z,1022.9
2018-09-01T03:37:19.508Z,1022.93
2018-09-01T03:38:19.243Z,1022.91
2018-09-01T03:39:19.352Z,1022.93
2018-09-01T03:40:19.317Z,1022.9
2018-09-01T03:41:19.075Z,1022.9
2018-09-01T03:42:19.170Z,1022.92
2018-09-01T03:43:19.168Z,1022.94
2018-09-01T03:44:19.483Z,1022.84
2018-09-01T03:45:19.657Z,1022.87
2018-09-01T03:46:19.162Z,1022.87
2018-09-01T03:47:19.526Z,1022.89
2018-09-01T03:48:19.210Z,1022.91
2018-09-01T03:49:19.113Z,1022.88
2018-09-01T03:50:19.104Z,1022.88
2018-09-01T03:51:19.120Z,1022.91
2018-09-01T03:52:19.073Z,1022.91
2018-09-01T03:53:19.067Z,1022.88
2018-09-01T03:54:19.183Z,1022.88
2018-09-01T03:55:19.213Z,1022.86
2018-09-01T03:56:19.228Z,1022.83
2018-09-01T03:57:19.293Z,1022.83
2018-09-01T03:58:19.183Z,1022.84
2018-09-01T03:59:19.114Z,1022.86
2018-09-01T04:00:19.249Z,1022.86
2018-09-01T04:01:19.178Z,1022.84
2018-09-01T04:02:19.451Z,1022.88
2018-09-01T04:03:19.237Z,1022.88
2018-09-01T04:04:19.261Z,1022.9
2018-09-01T04:05:19.300Z,1022.88
2018-09-01T04:06:19.264Z,1022.89
2018-09-01T04:07:19.332Z,1022.87
2018-09-01T04:08:19.022Z,1022.85
2018-09-01T04:09:19.141Z,1022.82
2018-09-01T04:10:19.008Z,1022.85
2018-09-01T04:11:19.286Z,1022.88
2018-09-01T04:12:19.238Z,1022.9
2018-09-01T04:13:19.425Z,1022.9
2018-09-01T04:14:19.351Z,1022.91
2018-09-01T04:15:19.335Z,1022.91
2018-09-01T04:16:19.097Z,1022.9
2018-09-01T04:17:19.042Z,1022.91
2018-09-01T04:18:19.174Z,1022.95
2018-09-01T04:19:19.210Z,1022.9
2018-09-01T04:20:19.226Z,1022.88
2018-09-01T04:21:19.246Z,1022.92
2018-09-01T04:22:19.184Z,1022.91
2018-09-01T04:23:19.158Z,1022.86
2018-09-01T04:24:19.221Z,1022.9
2018-09-01T04:25:19.158Z,1022.87
2018-09-01T04:26:19.087Z,1022.88
2018-09-01T04:27:19.507Z,1022.89
2018-09-01T04:28:19.260Z,1022.94
2018-09-01T04:29:19.126Z,1022.89
2018-09-01T04:30:19.097Z,1022.96
2018-09-01T04:31:19.253Z,1023.02
2018-09-01T04:32:19.166Z,1023.02
2018-09-01T04:33:19.244Z,1023
2018-09-01T04:34:19.076Z,1023.02
2018-09-01T04:35:19.165Z,1022.97
2018-09-01T04:36:19.167Z,1023.04
2018-09-01T04:37:19.155Z,1022.99
2018-09-01T04:38:19.217Z,1022.97
2018-09-01T04:39:19.129Z,1022.96
2018-09-01T04:40:19.052Z,1022.94
2018-09-01T04:41:19.095Z,1022.94
2018-09-01T04:42:19.157Z,1022.97
2018-09-01T04:43:19.172Z,1022.95
2018-09-01T04:44:19.304Z,1022.94
2018-09-01T04:45:19.278Z,1022.93
2018-09-01T04:46:19.068Z,1022.95
2018-09-01T04:47:19.360Z,1022.98
2018-09-01T04:48:19.224Z,1022.98
2018-09-01T04:49:19.111Z,1022.98
2018-09-01T04:50:19.432Z,1022.97
2018-09-01T04:51:19.242Z,1022.98
2018-09-01T04:52:19.113Z,1022.96
2018-09-01T04:53:19.168Z,1022.99
2018-09-01T04:54:19.217Z,1022.98
2018-09-01T04:55:19.548Z,1022.95
2018-09-01T04:56:19.039Z,1022.99
2018-09-01T04:57:19.140Z,1022.98
2018-09-01T04:58:19.298Z,1022.99
2018-09-01T04:59:19.261Z,1023.03
2018-09-01T05:00:19.328Z,1023.06
2018-09-01T05:01:19.409Z,1023.09
2018-09-01T05:02:19.256Z,1023.1
2018-09-01T05:03:19.114Z,1023.13
2018-09-01T05:04:19.347Z,1023.14
2018-09-01T05:05:19.497Z,1023.14
2018-09-01T05:06:19.196Z,1023.17
2018-09-01T05:07:19.382Z,1023.16
2018-09-01T05:08:19.314Z,1023.17
2018-09-01T05:09:19.554Z,1023.16
2018-09-01T05:10:19.322Z,1023.17
2018-09-01T05:11:19.177Z,1023.18
2018-09-01T05:12:19.320Z,1023.17
2018-09-01T05:13:19.305Z,1023.21
2018-09-01T05:14:19.115Z,1023.19
2018-09-01T05:15:19.328Z,1023.17
2018-09-01T05:16:19.137Z,1023.16
2018-09-01T05:17:19.201Z,1023.19
2018-09-01T05:18:19.185Z,1023.21
2018-09-01T05:19:19.148Z,1023.2
2018-09-01T05:20:19.516Z,1023.21
2018-09-01T05:21:19.094Z,1023.23
2018-09-01T05:22:19.079Z,1023.2
2018-09-01T05:23:19.300Z,1023.23
2018-09-01T05:24:19.531Z,1023.28
2018-09-01T05:25:19.296Z,1023.28
2018-09-01T05:26:19.199Z,1023.25
2018-09-01T05:27:19.221Z,1023.28
2018-09-01T05:28:19.284Z,1023.3
2018-09-01T05:29:19.307Z,1023.27
2018-09-01T05:30:19.324Z,1023.28
2018-09-01T05:31:19.367Z,1023.25
2018-09-01T05:32:19.294Z,1023.27
2018-09-01T05:33:19.285Z,1023.26
2018-09-01T05:34:19.198Z,1023.23
2018-09-01T05:35:19.501Z,1023.21
2018-09-01T05:36:19.254Z,1023.25
2018-09-01T05:37:19.243Z,1023.25
2018-09-01T05:38:19.199Z,1023.21
2018-09-01T05:39:19.079Z,1023.24
2018-09-01T05:40:19.164Z,1023.23
2018-09-01T05:41:19.337Z,1023.29
2018-09-01T05:42:19.099Z,1023.26
2018-09-01T05:43:19.149Z,1023.24
2018-09-01T05:44:19.325Z,1023.27
2018-09-01T05:45:19.171Z,1023.25
2018-09-01T05:46:19.198Z,1023.25
2018-09-01T05:47:19.027Z,1023.26
2018-09-01T05:48:19.252Z,1023.26
2018-09-01T05:49:19.166Z,1023.25
2018-09-01T05:50:19.186Z,1023.28
2018-09-01T05:51:19.189Z,1023.31
2018-09-01T05:52:19.238Z,1023.31
2018-09-01T05:53:19.279Z,1023.36
2018-09-01T05:54:19.325Z,1023.36
2018-09-01T05:55:19.176Z,1023.42
2018-09-01T05:56:19.093Z,1023.44
2018-09-01T05:57:19.084Z,1023.41
2018-09-01T05:58:19.066Z,1023.42
2018-09-01T05:59:19.223Z,1023.44
2018-09-01T06:00:19.121Z,1023.48
2018-09-01T06:01:19.215Z,1023.44
2018-09-01T06:02:19.363Z,1023.46
2018-09-01T06:03:19.246Z,1023.48
2018-09-01T06:04:19.221Z,1023.49
2018-09-01T06:05:19.133Z,1023.48
2018-09-01T06:06:19.630Z,1023.5
2018-09-01T06:07:19.178Z,1023.45
2018-09-01T06:08:19.241Z,1023.48
2018-09-01T06:09:19.474Z,1023.48
2018-09-01T06:10:19.346Z,1023.49
2018-09-01T06:11:19.740Z,1023.53
2018-09-01T06:12:19.003Z,1023.5
2018-09-01T06:13:19.642Z,1023.52
2018-09-01T06:14:19.343Z,1023.55
2018-09-01T06:15:19.152Z,1023.53
2018-09-01T06:16:19.056Z,1023.55
2018-09-01T06:17:19.246Z,1023.54
2018-09-01T06:18:19.005Z,1023.51
2018-09-01T06:19:19.581Z,1023.59
2018-09-01T06:20:19.237Z,1023.6
2018-09-01T06:21:19.188Z,1023.6
2018-09-01T06:22:19.141Z,1023.61
2018-09-01T06:23:19.099Z,1023.67
2018-09-01T06:24:19.194Z,1023.66
2018-09-01T06:25:19.218Z,1023.68
2018-09-01T06:26:19.078Z,1023.68
2018-09-01T06:27:19.130Z,1023.69
2018-09-01T06:28:19.053Z,1023.69
2018-09-01T06:29:19.260Z,1023.71
2018-09-01T06:30:19.602Z,1023.7
2018-09-01T06:31:19.101Z,1023.67
2018-09-01T06:32:19.077Z,1023.71
2018-09-01T06:33:19.076Z,1023.69
2018-09-01T06:34:19.240Z,1023.67
2018-09-01T06:35:19.285Z,1023.64
2018-09-01T06:36:19.299Z,1023.61
2018-09-01T06:37:19.326Z,1023.6
2018-09-01T06:38:19.223Z,1023.62
2018-09-01T06:39:19.132Z,1023.58
2018-09-01T06:40:19.203Z,1023.61
2018-09-01T06:41:19.101Z,1023.55
2018-09-01T06:42:19.193Z,1023.57
2018-09-01T06:43:19.164Z,1023.58
2018-09-01T06:44:19.032Z,1023.6
2018-09-01T06:45:19.182Z,1023.61
2018-09-01T06:46:19.354Z,1023.62
2018-09-01T06:47:19.094Z,1023.63
2018-09-01T06:48:19.317Z,1023.66
2018-09-01T06:49:19.247Z,1023.7
2018-09-01T06:50:19.824Z,1023.69
2018-09-01T06:51:19.352Z,1023.73
2018-09-01T06:52:19.198Z,1023.71
2018-09-01T06:53:19.463Z,1023.7
2018-09-01T06:54:19.169Z,1023.7
2018-09-01T06:55:19.107Z,1023.72
2018-09-01T06:56:19.405Z,1023.76
2018-09-01T06:57:19.440Z,1023.77
2018-09-01T06:58:19.337Z,1023.79
2018-09-01T06:59:19.106Z,1023.82
2018-09-01T07:00:19.357Z,1023.89
2018-09-01T07:01:19.135Z,1023.9
2018-09-01T07:02:19.023Z,1023.9
2018-09-01T07:03:19.271Z,1023.94
2018-09-01T07:04:19.076Z,1023.95
2018-09-01T07:05:19.189Z,1023.89
2018-09-01T07:06:19.263Z,1023.86
2018-09-01T07:07:19.099Z,1023.89
2018-09-01T07:08:19.402Z,1023.89
2018-09-01T07:09:19.075Z,1023.9
2018-09-01T07:10:19.252Z,1023.9
2018-09-01T07:11:19.148Z,1023.96
2018-09-01T07:12:19.213Z,1023.93
2018-09-01T07:13:18.992Z,1023.95
2018-09-01T07:14:19.135Z,1023.96
2018-09-01T07:15:19.242Z,1023.97
2018-09-01T07:16:19.148Z,1023.97
2018-09-01T07:17:19.208Z,1023.95
2018-09-01T07:18:19.093Z,1023.99
2018-09-01T07:19:19.216Z,1023.95
2018-09-01T07:20:19.328Z,1023.9
2018-09-01T07:21:19.284Z,1023.94
2018-09-01T07:22:19.520Z,1023.9
2018-09-01T07:23:19.084Z,1023.87
2018-09-01T07:24:19.068Z,1023.89
2018-09-01T07:25:19.301Z,1023.93
2018-09-01T07:26:19.249Z,1023.95
2018-09-01T07:27:19.171Z,1023.94
2018-09-01T07:28:19.043Z,1023.98
2018-09-01T07:29:19.161Z,1024.06
2018-09-01T07:30:19.905Z,1024.05
2018-09-01T07:31:21.365Z,1024.06
2018-09-01T07:32:19.241Z,1024.05
2018-09-01T07:33:19.071Z,1024.03
2018-09-01T07:34:19.188Z,1024.03
2018-09-01T07:35:19.403Z,1024.04
2018-09-01T07:36:19.211Z,1023.97
2018-09-01T07:37:19.252Z,1023.97
2018-09-01T07:38:19.670Z,1023.98
2018-09-01T07:39:19.013Z,1024.07
2018-09-01T07:40:19.153Z,1024.01
2018-09-01T07:41:19.290Z,1024.09
2018-09-01T07:42:19.173Z,1024.05
2018-09-01T07:43:19.198Z,1024
2018-09-01T07:44:19.112Z,1024.05
2018-09-01T07:45:19.410Z,1024.07
2018-09-01T07:46:19.272Z,1024.06
2018-09-01T07:47:19.095Z,1024.08
2018-09-01T07:48:19.139Z,1024.11
2018-09-01T07:49:19.201Z,1024.07
2018-09-01T07:50:19.184Z,1024.05
2018-09-01T07:51:19.220Z,1024.08
2018-09-01T07:52:19.397Z,1024.09
2018-09-01T07:53:18.983Z,1024.06
2018-09-01T07:54:19.121Z,1024.08
2018-09-01T07:55:19.210Z,1024.12
2018-09-01T07:56:19.865Z,1024.14
2018-09-01T07:57:19.269Z,1024.19
2018-09-01T07:58:19.248Z,1024.23
2018-09-01T07:59:19.227Z,1024.18
2018-09-01T08:00:19.245Z,1024.26
2018-09-01T08:01:19.400Z,1024.27
2018-09-01T08:02:19.272Z,1024.31
2018-09-01T08:03:19.205Z,1024.25
2018-09-01T08:04:19.259Z,1024.28
2018-09-01T08:05:19.327Z,1024.3
2018-09-01T08:06:19.582Z,1024.34
2018-09-01T08:07:19.371Z,1024.35
2018-09-01T08:08:19.185Z,1024.33
2018-09-01T08:09:19.177Z,1024.41
2018-09-01T08:10:19.291Z,1024.4
2018-09-01T08:11:19.276Z,1024.4
2018-09-01T08:12:19.336Z,1024.38
2018-09-01T08:13:19.154Z,1024.39
2018-09-01T08:14:19.701Z,1024.46
2018-09-01T08:15:19.152Z,1024.44
2018-09-01T08:16:19.405Z,1024.46
2018-09-01T08:17:19.026Z,1024.37
2018-09-01T08:18:19.010Z,1024.41
2018-09-01T08:19:19.301Z,1024.5
2018-09-01T08:20:19.139Z,1024.46
2018-09-01T08:21:19.282Z,1024.48
2018-09-01T08:22:19.253Z,1024.46
2018-09-01T08:23:18.982Z,1024.49
2018-09-01T08:24:19.185Z,1024.47
2018-09-01T08:25:19.366Z,1024.5
2018-09-01T08:26:19.208Z,1024.52
2018-09-01T08:27:19.122Z,1024.57
2018-09-01T08:28:18.998Z,1024.58
2018-09-01T08:29:19.031Z,1024.6
2018-09-01T08:30:19.159Z,1024.61
2018-09-01T08:31:19.459Z,1024.6
2018-09-01T08:32:19.125Z,1024.65
2018-09-01T08:33:18.991Z,1024.66
2018-09-01T08:34:19.174Z,1024.69
2018-09-01T08:35:19.180Z,1024.69
2018-09-01T08:36:19.049Z,1024.66
2018-09-01T08:37:19.280Z,1024.69
2018-09-01T08:38:19.121Z,1024.7
2018-09-01T08:39:19.351Z,1024.7
2018-09-01T08:40:19.227Z,1024.74
2018-09-01T08:41:19.223Z,1024.74
2018-09-01T08:42:19.165Z,1024.73
2018-09-01T08:43:19.395Z,1024.74
2018-09-01T08:44:19.566Z,1024.75
2018-09-01T08:45:19.424Z,1024.71
2018-09-01T08:46:18.920Z,1024.74
2018-09-01T08:47:19.107Z,1024.76
2018-09-01T08:48:19.211Z,1024.75
2018-09-01T08:49:19.315Z,1024.8
2018-09-01T08:50:18.970Z,1024.8
2018-09-01T08:51:19.254Z,1024.77
2018-09-01T08:52:19.229Z,1024.76
2018-09-01T08:53:19.276Z,1024.78
2018-09-01T08:54:19.126Z,1024.74
2018-09-01T08:55:19.288Z,1024.7
2018-09-01T08:56:19.062Z,1024.68
2018-09-01T08:57:19.271Z,1024.69
2018-09-01T08:58:19.015Z,1024.69
2018-09-01T08:59:19.139Z,1024.68
2018-09-01T09:00:19.270Z,1024.65
2018-09-01T09:01:19.173Z,1024.65
2018-09-01T09:02:19.363Z,1024.67
2018-09-01T09:03:19.103Z,1024.63
2018-09-01T09:04:19.350Z,1024.63
2018-09-01T09:05:19.375Z,1024.65
2018-09-01T09:06:19.270Z,1024.63
2018-09-01T09:07:19.165Z,1024.64
2018-09-01T09:08:19.153Z,1024.65
2018-09-01T09:09:19.157Z,1024.67
2018-09-01T09:10:19.308Z,1024.66
2018-09-01T09:11:19.260Z,1024.69
2018-09-01T09:12:19.459Z,1024.64
2018-09-01T09:13:19.127Z,1024.58
2018-09-01T09:14:19.246Z,1024.62
2018-09-01T09:15:19.160Z,1024.6
2018-09-01T09:16:19.189Z,1024.66
2018-09-01T09:17:19.174Z,1024.55
2018-09-01T09:18:19.248Z,1024.56
2018-09-01T09:19:19.027Z,1024.55
2018-09-01T09:20:19.174Z,1024.58
2018-09-01T09:21:19.222Z,1024.62
2018-09-01T09:22:19.614Z,1024.63
2018-09-01T09:23:19.052Z,1024.58
2018-09-01T09:24:19.457Z,1024.56
2018-09-01T09:25:19.086Z,1024.54
2018-09-01T09:26:19.228Z,1024.51
2018-09-01T09:27:19.179Z,1024.51
2018-09-01T09:28:19.305Z,1024.54
2018-09-01T09:29:19.216Z,1024.54
2018-09-01T09:30:19.042Z,1024.52
2018-09-01T09:31:19.069Z,1024.55
2018-09-01T09:32:19.340Z,1024.57
2018-09-01T09:33:19.051Z,1024.52
2018-09-01T09:34:19.447Z,1024.53
2018-09-01T09:35:19.365Z,1024.49
2018-09-01T09:36:19.208Z,1024.51
2018-09-01T09:37:19.037Z,1024.47
2018-09-01T09:38:19.387Z,1024.48
2018-09-01T09:39:19.012Z,1024.53
2018-09-01T09:40:19.182Z,1024.57
2018-09-01T09:41:19.099Z,1024.53
2018-09-01T09:42:19.308Z,1024.54
2018-09-01T09:43:19.036Z,1024.54
2018-09-01T09:44:19.035Z,1024.51
2018-09-01T09:45:19.086Z,1024.59
2018-09-01T09:46:19.204Z,1024.57
2018-09-01T09:47:19.084Z,1024.56
2018-09-01T09:48:19.141Z,1024.52
2018-09-01T09:49:19.073Z,1024.49
2018-09-01T09:50:19.097Z,1024.5
2018-09-01T09:51:19.037Z,1024.51
2018-09-01T09:52:19.203Z,1024.49
2018-09-01T09:53:19.159Z,1024.44
2018-09-01T09:54:19.213Z,1024.48
2018-09-01T09:55:19.197Z,1024.44
2018-09-01T09:56:19.133Z,1024.46
2018-09-01T10:02:03.620Z,1024.37
2018-09-01T10:09:57.595Z,1024.37
2018-09-01T10:10:57.749Z,1024.38
2018-09-01T10:11:57.594Z,1024.41
2018-09-01T10:12:57.552Z,1024.38
2018-09-01T10:13:58.013Z,1024.35
2018-09-01T10:14:58.070Z,1024.35
2018-09-01T10:15:57.939Z,1024.4
2018-09-01T10:16:57.529Z,1024.36
2018-09-01T10:17:57.433Z,1024.34
2018-09-01T10:18:58.144Z,1024.37
2018-09-01T10:19:57.776Z,1024.35
2018-09-01T10:21:10.130Z,1024.35
2018-09-01T10:22:10.062Z,1024.35
2018-09-01T10:23:10.352Z,1024.32
2018-09-01T10:24:10.100Z,1024.35
2018-09-01T10:25:10.100Z,1024.33
2018-09-01T10:26:10.391Z,1024.33
2018-09-01T10:27:10.445Z,1024.32
2018-09-01T10:28:10.428Z,1024.33
2018-09-01T10:29:10.236Z,1024.3
2018-09-01T10:30:10.256Z,1024.29
2018-09-01T10:31:10.272Z,1024.27
2018-09-01T10:32:10.130Z,1024.22
2018-09-01T10:33:10.284Z,1024.22
2018-09-01T10:34:10.321Z,1024.18
2018-09-01T10:35:10.330Z,1024.18
2018-09-01T10:36:10.192Z,1024.18
2018-09-01T10:37:10.135Z,1024.19
2018-09-01T10:38:10.184Z,1024.2
2018-09-01T10:39:10.206Z,1024.18
2018-09-01T10:40:10.444Z,1024.15
2018-09-01T10:41:10.199Z,1024.12
2018-09-01T10:42:10.155Z,1024.14
2018-09-01T10:43:10.368Z,1024.11
2018-09-01T10:44:10.360Z,1024.07
2018-09-01T10:45:10.095Z,1024.05
2018-09-01T10:46:10.566Z,1024.06
2018-09-01T10:47:10.385Z,1024.05
2018-09-01T10:48:10.328Z,1024.05
2018-09-01T10:49:10.096Z,1024.11
2018-09-01T10:50:10.459Z,1024.08
2018-09-01T10:51:10.474Z,1024.04
2018-09-01T10:52:10.541Z,1024
2018-09-01T10:53:10.720Z,1024.04
2018-09-01T10:54:10.384Z,1024.04
2018-09-01T10:55:10.334Z,1023.99
2018-09-01T10:56:10.238Z,1023.96
2018-09-01T10:57:10.209Z,1023.95
2018-09-01T10:58:10.270Z,1023.94
2018-09-01T10:59:11.060Z,1023.94
2018-09-01T11:00:10.219Z,1023.9
2018-09-01T11:01:10.192Z,1023.91
2018-09-01T11:02:10.193Z,1023.92
2018-09-01T11:03:10.246Z,1023.9
2018-09-01T11:04:10.230Z,1023.88
2018-09-01T11:05:10.420Z,1023.92
2018-09-01T11:06:10.237Z,1023.95
2018-09-01T11:07:10.316Z,1023.93
2018-09-01T11:08:10.388Z,1023.91
2018-09-01T11:09:10.368Z,1023.91
2018-09-01T11:10:10.623Z,1023.93
2018-09-01T11:11:10.345Z,1023.92
2018-09-01T11:12:10.476Z,1023.93
2018-09-01T11:13:10.194Z,1023.93
2018-09-01T11:14:10.816Z,1023.88
2018-09-01T11:15:10.899Z,1023.96
2018-09-01T11:16:10.324Z,1023.91
2018-09-01T11:17:10.723Z,1023.92
2018-09-01T11:18:10.288Z,1023.88
2018-09-01T11:19:10.528Z,1023.91
2018-09-01T11:20:10.410Z,1023.87
2018-09-01T11:21:10.342Z,1023.88
2018-09-01T11:22:10.555Z,1023.9
2018-09-01T11:23:10.462Z,1023.85
2018-09-01T11:24:10.422Z,1023.81
2018-09-01T11:25:10.502Z,1023.81
2018-09-01T11:26:10.330Z,1023.81
2018-09-01T11:27:10.298Z,1023.8
2018-09-01T11:28:10.827Z,1023.81
2018-09-01T11:29:10.331Z,1023.8
2018-09-01T11:30:10.221Z,1023.79
2018-09-01T11:31:10.539Z,1023.81
2018-09-01T11:32:10.409Z,1023.81
2018-09-01T11:33:10.396Z,1023.79
2018-09-01T11:34:10.315Z,1023.82
2018-09-01T11:35:10.195Z,1023.83
2018-09-01T11:36:10.532Z,1023.79
2018-09-01T11:37:10.174Z,1023.78
2018-09-01T11:38:10.339Z,1023.8
2018-09-01T11:39:10.414Z,1023.77
2018-09-01T11:40:10.326Z,1023.78
2018-09-01T11:41:10.215Z,1023.77
2018-09-01T11:42:10.267Z,1023.79
2018-09-01T11:43:11.292Z,1023.76
2018-09-01T11:44:10.295Z,1023.75
2018-09-01T11:45:10.253Z,1023.77
2018-09-01T11:46:10.122Z,1023.75
2018-09-01T11:47:10.018Z,1023.73
2018-09-01T11:48:10.305Z,1023.73
2018-09-01T11:49:10.604Z,1023.7
2018-09-01T11:50:10.406Z,1023.7
2018-09-01T11:51:10.395Z,1023.72
2018-09-01T11:52:10.378Z,1023.68
2018-09-01T11:53:10.287Z,1023.73
2018-09-01T11:54:10.355Z,1023.71
2018-09-01T11:55:10.129Z,1023.74
2018-09-01T11:56:10.174Z,1023.7
2018-09-01T11:57:10.093Z,1023.73
2018-09-01T11:58:10.234Z,1023.72
2018-09-01T11:59:10.133Z,1023.79
2018-09-01T12:00:10.384Z,1023.79
2018-09-01T12:01:10.183Z,1023.8
2018-09-01T12:02:10.500Z,1023.78
2018-09-01T12:03:10.238Z,1023.84
2018-09-01T12:04:10.454Z,1023.89
2018-09-01T12:05:10.232Z,1023.88
2018-09-01T12:06:10.328Z,1023.88
2018-09-01T12:07:10.340Z,1023.92
2018-09-01T12:08:10.215Z,1023.9
2018-09-01T12:09:10.863Z,1023.91
2018-09-01T12:10:10.271Z,1023.91
2018-09-01T12:11:10.275Z,1023.92
2018-09-01T12:12:10.420Z,1023.93
2018-09-01T12:13:10.332Z,1023.93
2018-09-01T12:14:10.259Z,1023.94
2018-09-01T12:15:10.401Z,1023.97
2018-09-01T12:16:10.111Z,1023.93
2018-09-01T12:17:10.353Z,1023.99
2018-09-01T12:18:10.342Z,1023.98
2018-09-01T12:19:10.723Z,1023.99
2018-09-01T12:20:10.323Z,1024.01